createdAt,value
2018-10-21T00:00:13.980Z,24.40
2018-10-21T00:01:13.967Z,23.10
2018-10-21T00:02:13.837Z,23.50
2018-10-21T00:03:14.051Z,23.20
2018-10-21T00:04:13.764Z,22.70
2018-10-21T00:05:13.748Z,23.70
2018-10-21T00:06:13.961Z,21.10
2018-10-21T00:07:13.745Z,21.20
2018-10-21T00:08:13.754Z,20.20
2018-10-21T00:09:13.841Z,19.70
2018-10-21T00:10:13.741Z,19.40
2018-10-21T00:11:13.726Z,17.80
2018-10-21T00:12:13.726Z,18.70
2018-10-21T00:13:13.934Z,18.80
2018-10-21T00:14:13.729Z,18.70
2018-10-21T00:15:14.044Z,18.70
2018-10-21T00:16:13.711Z,18.00
2018-10-21T00:17:13.705Z,18.00
2018-10-21T00:18:13.701Z,17.50
2018-10-21T00:19:13.911Z,18.50
2018-10-21T00:20:13.694Z,18.80
2018-10-21T00:21:13.730Z,19.50
2018-10-21T00:22:13.912Z,19.10
2018-10-21T00:23:13.704Z,20.00
2018-10-21T00:24:13.690Z,19.20
2018-10-21T00:25:13.676Z,19.40
2018-10-21T00:26:13.675Z,19.70
2018-10-21T00:27:13.734Z,18.60
2018-10-21T00:28:13.676Z,19.10
2018-10-21T00:29:13.675Z,19.20
2018-10-21T00:30:13.673Z,19.20
2018-10-21T00:31:13.855Z,19.30
2018-10-21T00:32:13.652Z,18.10
2018-10-21T00:33:13.749Z,18.20
2018-10-21T00:34:13.861Z,19.20
2018-10-21T00:35:13.840Z,20.30
2018-10-21T00:36:13.837Z,20.40
2018-10-21T00:37:13.847Z,19.90
2018-10-21T00:38:13.644Z,19.50
2018-10-21T00:39:13.675Z,19.40
2018-10-21T00:40:13.625Z,17.10
2018-10-21T00:41:13.629Z,16.70
2018-10-21T00:42:13.625Z,16.70
2018-10-21T00:43:13.620Z,17.60
2018-10-21T00:44:13.626Z,17.10
2018-10-21T00:45:13.710Z,17.50
2018-10-21T00:46:13.595Z,19.00
2018-10-21T00:47:13.595Z,18.90
2018-10-21T00:48:13.591Z,19.30
2018-10-21T00:49:13.586Z,18.80
2018-10-21T00:50:13.607Z,19.60
2018-10-21T00:51:13.652Z,20.70
2018-10-21T00:52:13.584Z,19.30
2018-10-21T00:53:13.797Z,20.20
2018-10-21T00:54:13.593Z,20.10
2018-10-21T00:55:13.579Z,19.40
2018-10-21T00:56:13.578Z,19.50
2018-10-21T00:57:13.611Z,18.20
2018-10-21T00:58:13.567Z,18.80
2018-10-21T00:59:13.562Z,18.70
2018-10-21T01:00:13.558Z,18.20
2018-10-21T01:01:13.549Z,17.40
2018-10-21T01:02:13.752Z,17.80
2018-10-21T01:03:13.643Z,16.40
2018-10-21T01:04:13.619Z,16.80
2018-10-21T01:05:13.537Z,18.60
2018-10-21T01:06:13.733Z,19.90
2018-10-21T01:08:13.511Z,16.70
2018-10-21T01:09:13.558Z,14.90
2018-10-21T01:10:13.531Z,16.00
2018-10-21T01:11:13.499Z,15.70
2018-10-21T01:12:13.508Z,17.40
2018-10-21T01:13:13.505Z,18.20
2018-10-21T01:14:13.501Z,20.30
2018-10-21T01:15:13.778Z,19.30
2018-10-21T01:16:13.510Z,18.30
2018-10-21T01:17:13.690Z,15.90
2018-10-21T01:18:13.501Z,16.00
2018-10-21T01:19:13.481Z,15.80
2018-10-21T01:20:13.471Z,16.00
2018-10-21T01:21:13.697Z,17.20
2018-10-21T01:22:13.471Z,17.00
2018-10-21T01:23:13.656Z,16.70
2018-10-21T01:24:13.449Z,17.10
2018-10-21T01:25:13.467Z,16.40
2018-10-21T01:26:13.470Z,16.90
2018-10-21T01:27:13.544Z,16.00
2018-10-21T01:28:13.436Z,17.20
2018-10-21T01:29:13.433Z,16.90
2018-10-21T01:30:13.456Z,16.00
2018-10-21T01:31:13.446Z,15.10
2018-10-21T01:32:13.421Z,17.00
2018-10-21T01:33:13.455Z,16.40
2018-10-21T01:34:13.459Z,17.10
2018-10-21T01:35:13.611Z,16.60
2018-10-21T01:36:13.663Z,16.50
2018-10-21T01:37:13.497Z,16.90
2018-10-21T01:38:13.422Z,15.80
2018-10-21T01:39:13.484Z,17.40
2018-10-21T01:40:13.390Z,15.50
2018-10-21T01:41:13.393Z,16.60
2018-10-21T01:42:13.391Z,16.20
2018-10-21T01:43:13.385Z,17.10
2018-10-21T01:44:13.373Z,16.70
2018-10-21T01:45:13.493Z,16.60
2018-10-21T01:46:13.566Z,15.80
2018-10-21T01:47:13.361Z,15.70
2018-10-21T01:48:13.359Z,15.80
2018-10-21T01:49:13.352Z,16.00
2018-10-21T01:50:13.346Z,16.70
2018-10-21T01:51:13.369Z,15.60
2018-10-21T01:52:13.558Z,16.50
2018-10-21T01:53:13.333Z,15.30
2018-10-21T01:54:13.544Z,16.20
2018-10-21T01:55:13.326Z,16.80
2018-10-21T01:56:13.323Z,16.20
2018-10-21T01:57:13.599Z,16.00
2018-10-21T01:58:13.520Z,15.10
2018-10-21T01:59:13.314Z,15.30
2018-10-21T02:00:13.309Z,15.50
2018-10-21T02:01:13.506Z,15.80
2018-10-21T02:02:13.318Z,15.50
2018-10-21T02:03:13.337Z,15.30
2018-10-21T02:04:13.290Z,16.30
2018-10-21T02:05:13.301Z,14.40
2018-10-21T02:06:13.282Z,14.70
2018-10-21T02:07:13.278Z,14.70
2018-10-21T02:08:13.335Z,15.10
2018-10-21T02:09:13.518Z,15.60
2018-10-21T02:10:13.276Z,15.40
2018-10-21T02:11:13.263Z,14.70
2018-10-21T02:12:13.259Z,14.40
2018-10-21T02:13:13.319Z,14.30
2018-10-21T02:14:13.267Z,14.80
2018-10-21T02:15:13.308Z,14.30
2018-10-21T02:16:13.242Z,14.30
2018-10-21T02:17:13.238Z,13.30
2018-10-21T02:18:13.259Z,13.50
2018-10-21T02:19:13.260Z,14.30
2018-10-21T02:20:13.253Z,13.10
2018-10-21T02:21:13.277Z,14.10
2018-10-21T02:22:13.234Z,13.80
2018-10-21T02:23:13.228Z,14.90
2018-10-21T02:24:13.209Z,15.00
2018-10-21T02:25:13.205Z,14.80
2018-10-21T02:26:13.487Z,14.60
2018-10-21T02:27:13.468Z,14.10
2018-10-21T02:28:13.224Z,14.70
2018-10-21T02:29:13.389Z,15.00
2018-10-21T02:30:13.215Z,14.50
2018-10-21T02:31:13.183Z,15.70
2018-10-21T02:32:13.378Z,15.30
2018-10-21T02:33:13.270Z,15.80
2018-10-21T02:34:13.180Z,15.70
2018-10-21T02:35:13.162Z,15.40
2018-10-21T02:36:13.158Z,15.80
2018-10-21T02:37:13.177Z,15.90
2018-10-21T02:38:13.151Z,16.70
2018-10-21T02:39:13.280Z,16.00
2018-10-21T02:40:13.142Z,16.10
2018-10-21T02:41:13.144Z,15.40
2018-10-21T02:42:13.137Z,16.30
2018-10-21T02:43:13.130Z,14.40
2018-10-21T02:44:13.125Z,15.60
2018-10-21T02:45:13.195Z,15.90
2018-10-21T02:46:13.116Z,15.50
2018-10-21T02:47:13.118Z,15.40
2018-10-21T02:48:13.110Z,14.70
2018-10-21T02:49:13.105Z,14.50
2018-10-21T02:50:13.115Z,15.10
2018-10-21T02:51:13.358Z,15.10
2018-10-21T02:52:13.091Z,14.60
2018-10-21T02:53:13.088Z,14.30
2018-10-21T02:54:13.083Z,14.30
2018-10-21T02:55:13.091Z,14.70
2018-10-21T02:56:13.275Z,14.80
2018-10-21T02:57:13.181Z,14.90
2018-10-21T02:58:13.069Z,15.00
2018-10-21T02:59:13.275Z,15.20
2018-10-21T03:00:13.060Z,14.90
2018-10-21T03:01:13.256Z,15.60
2018-10-21T03:02:13.051Z,15.80
2018-10-21T03:03:13.145Z,15.60
2018-10-21T03:04:13.041Z,16.40
2018-10-21T03:05:13.055Z,16.70
2018-10-21T03:06:13.031Z,16.20
2018-10-21T03:07:13.028Z,15.60
2018-10-21T03:08:13.029Z,16.30
2018-10-21T03:09:13.095Z,16.10
2018-10-21T03:10:13.223Z,15.90
2018-10-21T03:11:13.012Z,17.30
2018-10-21T03:12:13.210Z,17.00
2018-10-21T03:13:13.018Z,14.40
2018-10-21T03:14:13.212Z,13.30
2018-10-21T03:15:13.024Z,14.00
2018-10-21T03:16:13.209Z,13.00
2018-10-21T03:17:13.003Z,13.60
2018-10-21T03:18:12.995Z,13.20
2018-10-21T03:19:13.193Z,11.80
2018-10-21T03:20:12.975Z,11.20
2018-10-21T03:21:13.063Z,10.40
2018-10-21T03:22:12.991Z,11.50
2018-10-21T03:23:12.973Z,12.00
2018-10-21T03:24:12.970Z,11.60
2018-10-21T03:25:13.197Z,13.20
2018-10-21T03:26:12.950Z,13.90
2018-10-21T03:27:13.075Z,13.90
2018-10-21T03:28:12.943Z,14.10
2018-10-21T03:29:12.955Z,14.50
2018-10-21T03:30:12.938Z,15.60
2018-10-21T03:31:12.955Z,15.20
2018-10-21T03:32:13.131Z,14.10
2018-10-21T03:33:13.120Z,13.80
2018-10-21T03:34:13.142Z,13.90
2018-10-21T03:35:12.927Z,12.20
2018-10-21T03:36:12.923Z,12.60
2018-10-21T03:37:13.125Z,14.00
2018-10-21T03:38:12.910Z,14.00
2018-10-21T03:39:12.899Z,14.30
2018-10-21T03:40:12.990Z,14.60
2018-10-21T03:41:12.890Z,14.60
2018-10-21T03:42:13.112Z,14.80
2018-10-21T03:43:13.093Z,14.10
2018-10-21T03:44:12.917Z,14.80
2018-10-21T03:45:12.874Z,14.50
2018-10-21T03:46:13.024Z,15.30
2018-10-21T03:47:13.079Z,15.20
2018-10-21T03:48:12.863Z,15.00
2018-10-21T03:49:13.075Z,16.20
2018-10-21T03:50:12.852Z,15.00
2018-10-21T03:51:12.876Z,14.10
2018-10-21T03:52:12.903Z,15.20
2018-10-21T03:53:13.040Z,14.50
2018-10-21T03:54:12.848Z,13.50
2018-10-21T03:55:12.830Z,14.20
2018-10-21T03:56:12.842Z,15.30
2018-10-21T03:57:12.836Z,14.40
2018-10-21T03:58:12.948Z,14.50
2018-10-21T03:59:12.816Z,14.20
2018-10-21T04:00:12.825Z,13.70
2018-10-21T04:01:12.819Z,13.50
2018-10-21T04:02:12.814Z,14.70
2018-10-21T04:03:12.815Z,14.90
2018-10-21T04:04:12.924Z,16.10
2018-10-21T04:05:13.003Z,15.30
2018-10-21T04:06:12.795Z,15.50
2018-10-21T04:07:12.793Z,15.70
2018-10-21T04:08:12.983Z,15.50
2018-10-21T04:09:12.771Z,15.70
2018-10-21T04:10:12.810Z,16.00
2018-10-21T04:11:12.762Z,15.60
2018-10-21T04:12:12.770Z,15.50
2018-10-21T04:13:12.754Z,14.80
2018-10-21T04:14:12.966Z,14.80
2018-10-21T04:15:12.948Z,15.30
2018-10-21T04:16:13.031Z,15.40
2018-10-21T04:17:12.738Z,15.60
2018-10-21T04:18:12.739Z,16.20
2018-10-21T04:19:12.943Z,16.00
2018-10-21T04:20:12.940Z,15.40
2018-10-21T04:21:12.722Z,16.40
2018-10-21T04:22:12.747Z,16.10
2018-10-21T04:23:12.732Z,16.30
2018-10-21T04:24:12.709Z,17.10
2018-10-21T04:25:12.916Z,17.30
2018-10-21T04:26:12.699Z,17.20
2018-10-21T04:27:12.694Z,16.20
2018-10-21T04:28:12.732Z,17.00
2018-10-21T04:29:12.887Z,16.80
2018-10-21T04:30:12.682Z,16.60
2018-10-21T04:31:12.883Z,17.10
2018-10-21T04:32:12.683Z,15.00
2018-10-21T04:33:12.670Z,15.70
2018-10-21T04:34:12.776Z,14.60
2018-10-21T04:35:12.718Z,14.80
2018-10-21T04:36:12.671Z,14.90
2018-10-21T04:37:12.665Z,13.30
2018-10-21T04:38:12.671Z,14.50
2018-10-21T04:39:12.844Z,13.90
2018-10-21T04:40:12.714Z,16.20
2018-10-21T04:41:12.835Z,14.80
2018-10-21T04:42:12.639Z,12.90
2018-10-21T04:43:12.625Z,13.90
2018-10-21T04:44:12.639Z,14.70
2018-10-21T04:45:12.637Z,14.40
2018-10-21T04:46:12.742Z,15.20
2018-10-21T04:47:12.848Z,15.20
2018-10-21T04:48:12.616Z,14.60
2018-10-21T04:49:12.668Z,15.00
2018-10-21T04:50:12.595Z,13.90
2018-10-21T04:51:12.591Z,14.50
2018-10-21T04:52:12.643Z,14.60
2018-10-21T04:53:12.582Z,15.70
2018-10-21T04:54:12.583Z,15.10
2018-10-21T04:55:12.780Z,14.80
2018-10-21T04:56:12.600Z,15.00
2018-10-21T04:57:12.587Z,15.30
2018-10-21T04:58:12.664Z,15.60
2018-10-21T04:59:12.572Z,15.60
2018-10-21T05:00:12.570Z,15.20
2018-10-21T05:01:12.574Z,16.10
2018-10-21T05:02:12.768Z,15.80
2018-10-21T05:03:12.745Z,15.70
2018-10-21T05:04:12.721Z,16.80
2018-10-21T05:05:12.529Z,16.40
2018-10-21T05:06:12.525Z,16.50
2018-10-21T05:07:12.521Z,17.80
2018-10-21T05:08:12.529Z,16.60
2018-10-21T05:09:12.512Z,16.20
2018-10-21T05:10:12.610Z,17.60
2018-10-21T05:11:12.505Z,17.10
2018-10-21T05:12:12.503Z,17.50
2018-10-21T05:13:12.519Z,17.20
2018-10-21T05:14:12.491Z,14.80
2018-10-21T05:15:12.504Z,15.60
2018-10-21T05:16:12.585Z,16.60
2018-10-21T05:17:12.493Z,15.70
2018-10-21T05:18:12.686Z,20.10
2018-10-21T05:19:12.480Z,21.10
2018-10-21T05:20:12.476Z,15.00
2018-10-21T05:21:12.470Z,15.00
2018-10-21T05:22:12.576Z,15.60
2018-10-21T05:23:12.656Z,15.00
2018-10-21T05:24:12.458Z,15.10
2018-10-21T05:25:12.643Z,14.80
2018-10-21T05:26:12.448Z,16.00
2018-10-21T05:27:12.653Z,15.20
2018-10-21T05:28:12.747Z,15.40
2018-10-21T05:29:12.438Z,14.70
2018-10-21T05:30:12.440Z,15.20
2018-10-21T05:31:12.434Z,14.30
2018-10-21T05:32:12.430Z,14.70
2018-10-21T05:33:12.406Z,15.30
2018-10-21T05:34:12.475Z,15.20
2018-10-21T05:35:12.398Z,15.50
2018-10-21T05:36:12.414Z,15.60
2018-10-21T05:37:12.399Z,14.70
2018-10-21T05:38:12.384Z,15.20
2018-10-21T05:39:12.380Z,15.10
2018-10-21T05:40:12.458Z,14.70
2018-10-21T05:41:12.383Z,13.80
2018-10-21T05:42:12.367Z,14.80
2018-10-21T05:43:12.378Z,14.90
2018-10-21T05:44:12.383Z,15.40
2018-10-21T05:45:12.368Z,15.30
2018-10-21T05:46:12.602Z,15.80
2018-10-21T05:47:12.370Z,15.60
2018-10-21T05:48:12.342Z,16.50
2018-10-21T05:49:12.338Z,15.90
2018-10-21T05:50:12.545Z,15.20
2018-10-21T05:51:12.542Z,16.40
2018-10-21T05:52:12.425Z,16.40
2018-10-21T05:53:12.361Z,15.80
2018-10-21T05:54:12.341Z,15.30
2018-10-21T05:55:12.309Z,16.00
2018-10-21T05:56:12.317Z,16.40
2018-10-21T05:57:12.301Z,16.00
2018-10-21T05:58:12.318Z,16.80
2018-10-21T05:59:12.306Z,16.30
2018-10-21T06:00:12.313Z,16.30
2018-10-21T06:01:12.302Z,17.30
2018-10-21T06:02:12.290Z,18.10
2018-10-21T06:03:12.287Z,17.50
2018-10-21T06:04:12.349Z,18.40
2018-10-21T06:05:12.280Z,17.20
2018-10-21T06:06:12.273Z,22.20
2018-10-21T06:07:12.459Z,19.90
2018-10-21T06:08:12.265Z,19.90
2018-10-21T06:09:12.248Z,18.70
2018-10-21T06:10:12.315Z,19.00
2018-10-21T06:11:12.248Z,18.70
2018-10-21T06:12:12.236Z,17.80
2018-10-21T06:13:12.433Z,20.70
2018-10-21T06:14:12.236Z,20.60
2018-10-21T06:15:12.219Z,20.50
2018-10-21T06:16:12.286Z,19.60
2018-10-21T06:17:12.210Z,18.40
2018-10-21T06:18:12.205Z,19.80
2018-10-21T06:19:12.405Z,19.60
2018-10-21T06:20:12.200Z,20.70
2018-10-21T06:21:12.204Z,20.90
2018-10-21T06:22:12.308Z,22.00
2018-10-21T06:23:12.183Z,21.70
2018-10-21T06:24:12.391Z,22.00
2018-10-21T06:25:12.174Z,21.70
2018-10-21T06:26:12.194Z,21.70
2018-10-21T06:27:12.167Z,23.40
2018-10-21T06:28:12.176Z,24.10
2018-10-21T06:29:12.369Z,25.80
2018-10-21T06:30:12.367Z,24.50
2018-10-21T06:31:12.174Z,23.90
2018-10-21T06:32:12.149Z,19.90
2018-10-21T06:33:12.234Z,18.50
2018-10-21T06:34:12.136Z,20.40
2018-10-21T06:35:12.134Z,19.20
2018-10-21T06:36:12.343Z,19.20
2018-10-21T06:37:12.146Z,19.20
2018-10-21T06:38:12.120Z,22.50
2018-10-21T06:39:12.540Z,23.00
2018-10-21T06:40:12.124Z,20.30
2018-10-21T06:41:12.104Z,20.10
2018-10-21T06:42:12.111Z,18.50
2018-10-21T06:43:12.107Z,19.70
2018-10-21T06:44:12.092Z,20.00
2018-10-21T06:45:12.373Z,20.40
2018-10-21T06:46:12.107Z,21.70
2018-10-21T06:47:12.087Z,21.50
2018-10-21T06:48:12.073Z,21.20
2018-10-21T06:49:12.127Z,20.20
2018-10-21T06:50:12.073Z,20.60
2018-10-21T06:51:12.091Z,20.20
2018-10-21T06:52:12.054Z,19.50
2018-10-21T06:53:12.067Z,19.50
2018-10-21T06:54:12.045Z,19.80
2018-10-21T06:55:12.059Z,19.80
2018-10-21T06:56:12.241Z,20.40
2018-10-21T06:57:12.273Z,20.00
2018-10-21T06:58:12.240Z,19.80
2018-10-21T06:59:12.036Z,20.70
2018-10-21T07:00:12.025Z,20.40
2018-10-21T07:01:12.018Z,21.20
2018-10-21T07:02:12.011Z,21.90
2018-10-21T07:03:12.034Z,21.40
2018-10-21T07:04:12.084Z,21.30
2018-10-21T07:05:12.112Z,21.60
2018-10-21T07:06:12.200Z,21.40
2018-10-21T07:07:12.227Z,21.50
2018-10-21T07:08:11.996Z,22.60
2018-10-21T07:09:11.981Z,23.00
2018-10-21T07:10:12.201Z,22.70
2018-10-21T07:11:12.173Z,23.10
2018-10-21T07:12:11.980Z,22.70
2018-10-21T07:13:11.988Z,23.60
2018-10-21T07:14:11.970Z,23.30
2018-10-21T07:15:12.040Z,24.50
2018-10-21T07:16:12.099Z,25.40
2018-10-21T07:17:11.952Z,25.10
2018-10-21T07:18:11.960Z,25.20
2018-10-21T07:19:11.939Z,25.70
2018-10-21T07:20:12.147Z,26.80
2018-10-21T07:21:11.929Z,26.50
2018-10-21T07:22:12.128Z,28.00
2018-10-21T07:23:12.127Z,26.20
2018-10-21T07:24:11.941Z,27.00
2018-10-21T07:25:12.130Z,26.20
2018-10-21T07:26:11.911Z,26.40
2018-10-21T07:27:11.920Z,27.50
2018-10-21T07:28:12.210Z,28.70
2018-10-21T07:29:11.910Z,29.50
2018-10-21T07:30:11.914Z,28.60
2018-10-21T07:31:11.892Z,28.50
2018-10-21T07:32:11.909Z,26.90
2018-10-21T07:33:11.899Z,25.80
2018-10-21T07:34:11.930Z,27.60
2018-10-21T07:35:11.880Z,26.00
2018-10-21T07:36:11.926Z,26.20
2018-10-21T07:37:11.877Z,27.30
2018-10-21T07:38:11.872Z,27.80
2018-10-21T07:39:11.874Z,27.40
2018-10-21T07:40:11.972Z,26.20
2018-10-21T07:41:11.862Z,26.70
2018-10-21T07:42:12.048Z,27.30
2018-10-21T07:43:11.845Z,25.60
2018-10-21T07:44:12.042Z,25.70
2018-10-21T07:45:11.833Z,28.20
2018-10-21T07:46:12.078Z,27.60
2018-10-21T07:47:12.062Z,26.90
2018-10-21T07:48:12.043Z,27.30
2018-10-21T07:49:11.902Z,28.10
2018-10-21T07:50:12.017Z,28.60
2018-10-21T07:51:11.812Z,26.90
2018-10-21T07:52:11.906Z,27.20
2018-10-21T07:53:11.815Z,26.00
2018-10-21T07:54:11.834Z,24.80
2018-10-21T07:55:11.835Z,23.90
2018-10-21T07:56:11.796Z,22.10
2018-10-21T07:57:11.792Z,22.00
2018-10-21T07:58:11.883Z,22.20
2018-10-21T07:59:11.794Z,21.10
2018-10-21T08:00:11.782Z,20.80
2018-10-21T08:01:11.805Z,20.70
2018-10-21T08:02:11.775Z,20.90
2018-10-21T08:03:11.974Z,20.10
2018-10-21T08:04:12.030Z,20.40
2018-10-21T08:05:11.781Z,21.30
2018-10-21T08:06:11.762Z,20.90
2018-10-21T08:07:11.968Z,20.30
2018-10-21T08:08:11.766Z,21.30
2018-10-21T08:09:12.015Z,20.50
2018-10-21T08:10:11.839Z,20.60
2018-10-21T08:11:11.760Z,20.70
2018-10-21T08:12:11.749Z,20.80
2018-10-21T08:13:11.773Z,20.20
2018-10-21T08:14:11.735Z,20.70
2018-10-21T08:15:11.846Z,20.30
2018-10-21T08:16:12.065Z,20.80
2018-10-21T08:17:11.758Z,20.20
2018-10-21T08:18:11.723Z,21.20
2018-10-21T08:19:11.933Z,22.70
2018-10-21T08:20:11.939Z,20.70
2018-10-21T08:21:11.795Z,20.30
2018-10-21T08:22:11.799Z,20.80
2018-10-21T08:23:11.926Z,22.00
2018-10-21T08:24:11.721Z,21.30
2018-10-21T08:25:11.919Z,19.80
2018-10-21T08:26:11.916Z,19.80
2018-10-21T08:27:11.925Z,20.90
2018-10-21T08:28:11.766Z,20.60
2018-10-21T08:29:11.927Z,20.00
2018-10-21T08:30:11.690Z,21.70
2018-10-21T08:31:11.699Z,21.00
2018-10-21T08:32:11.696Z,20.50
2018-10-21T08:33:11.684Z,21.10
2018-10-21T08:34:11.759Z,22.10
2018-10-21T08:35:11.679Z,22.60
2018-10-21T08:36:11.701Z,21.80
2018-10-21T08:37:11.891Z,21.70
2018-10-21T08:38:11.869Z,20.50
2018-10-21T08:39:11.676Z,20.60
2018-10-21T08:40:11.940Z,21.80
2018-10-21T08:41:11.871Z,21.80
2018-10-21T08:42:11.668Z,21.90
2018-10-21T08:43:11.655Z,21.10
2018-10-21T08:44:11.854Z,20.70
2018-10-21T08:45:11.911Z,21.20
2018-10-21T08:46:11.769Z,20.50
2018-10-21T08:47:11.643Z,21.10
2018-10-21T08:48:11.654Z,21.80
2018-10-21T08:49:11.755Z,22.30
2018-10-21T08:50:11.634Z,22.40
2018-10-21T08:51:11.853Z,21.70
2018-10-21T08:52:11.705Z,20.90
2018-10-21T08:53:11.638Z,20.60
2018-10-21T08:54:11.631Z,20.10
2018-10-21T08:55:11.929Z,20.20
2018-10-21T08:56:11.824Z,20.60
2018-10-21T08:57:11.617Z,22.70
2018-10-21T08:58:11.751Z,21.10
2018-10-21T08:59:11.627Z,20.60
2018-10-21T09:00:11.610Z,20.00
2018-10-21T09:01:11.675Z,20.60
2018-10-21T09:02:11.708Z,19.80
2018-10-21T09:03:11.627Z,19.50
2018-10-21T09:04:11.907Z,20.80
2018-10-21T09:05:11.816Z,20.00
2018-10-21T09:06:11.596Z,20.70
2018-10-21T09:07:11.837Z,19.60
2018-10-21T09:08:11.792Z,19.90
2018-10-21T09:09:11.597Z,18.80
2018-10-21T09:10:11.643Z,18.40
2018-10-21T09:11:11.609Z,18.30
2018-10-21T09:12:11.613Z,18.40
2018-10-21T09:13:11.648Z,18.20
2018-10-21T09:14:11.588Z,18.70
2018-10-21T09:15:11.714Z,18.90
2018-10-21T09:16:11.678Z,19.30
2018-10-21T09:17:11.567Z,20.30
2018-10-21T09:18:11.567Z,20.80
2018-10-21T09:19:11.897Z,20.50
2018-10-21T09:20:11.799Z,20.70
2018-10-21T09:21:11.577Z,20.10
2018-10-21T09:22:11.631Z,19.20
2018-10-21T09:23:11.757Z,18.70
2018-10-21T09:24:11.569Z,18.60
2018-10-21T09:25:11.683Z,17.70
2018-10-21T09:26:11.578Z,17.50
2018-10-21T09:27:11.558Z,17.40
2018-10-21T09:28:11.738Z,17.30
2018-10-21T09:29:11.554Z,17.10
2018-10-21T09:30:11.555Z,17.80
2018-10-21T09:31:11.656Z,17.70
2018-10-21T09:32:11.739Z,18.40
2018-10-21T09:33:11.608Z,17.70
2018-10-21T09:34:11.640Z,17.40
2018-10-21T09:35:11.530Z,17.90
2018-10-21T09:36:11.527Z,17.50
2018-10-21T09:37:11.581Z,18.40
2018-10-21T09:38:11.727Z,18.50
2018-10-21T09:39:11.524Z,18.90
2018-10-21T09:40:11.579Z,17.40
2018-10-21T09:41:11.531Z,17.60
2018-10-21T09:42:11.598Z,16.70
2018-10-21T09:43:11.543Z,17.70
2018-10-21T09:44:11.519Z,18.30
2018-10-21T09:45:11.511Z,16.00
2018-10-21T09:46:11.568Z,16.60
2018-10-21T09:47:11.520Z,16.30
2018-10-21T09:48:11.519Z,16.30
2018-10-21T09:49:11.636Z,15.90
2018-10-21T09:50:11.511Z,17.20
2018-10-21T09:51:11.509Z,17.40
2018-10-21T09:52:11.602Z,17.10
2018-10-21T09:53:11.711Z,17.60
2018-10-21T09:54:11.496Z,16.00
2018-10-21T09:55:11.609Z,15.30
2018-10-21T09:56:11.490Z,15.20
2018-10-21T09:57:11.489Z,15.60
2018-10-21T09:58:11.734Z,15.50
2018-10-21T09:59:11.488Z,14.40
2018-10-21T10:00:11.684Z,15.10
2018-10-21T10:01:11.729Z,13.90
2018-10-21T10:02:11.479Z,14.30
2018-10-21T10:03:11.536Z,13.60
2018-10-21T10:04:11.511Z,13.50
2018-10-21T10:05:11.514Z,13.50
2018-10-21T10:06:11.683Z,12.20
2018-10-21T10:07:11.541Z,12.20
2018-10-21T10:08:11.469Z,12.60
2018-10-21T10:09:11.479Z,12.50
2018-10-21T10:10:11.560Z,13.40
2018-10-21T10:11:11.463Z,13.50
2018-10-21T10:12:11.472Z,12.90
2018-10-21T10:13:11.595Z,13.00
2018-10-21T10:14:11.468Z,12.30
2018-10-21T10:15:11.471Z,11.80
2018-10-21T10:16:11.526Z,12.70
2018-10-21T10:17:11.466Z,12.80
2018-10-21T10:18:11.461Z,12.50
2018-10-21T10:19:11.705Z,10.90
2018-10-21T10:20:11.448Z,11.20
2018-10-21T10:21:11.446Z,10.90
2018-10-21T10:22:11.560Z,11.30
2018-10-21T10:23:11.503Z,11.10
2018-10-21T10:24:11.441Z,11.30
2018-10-21T10:25:11.742Z,11.20
2018-10-21T10:26:11.644Z,9.60
2018-10-21T10:27:11.655Z,9.90
2018-10-21T10:28:11.528Z,9.60
2018-10-21T10:29:11.462Z,9.70
2018-10-21T10:30:11.635Z,9.30
2018-10-21T10:31:11.653Z,10.00
2018-10-21T10:32:11.428Z,10.20
2018-10-21T10:33:11.427Z,10.40
2018-10-21T10:34:11.502Z,10.10
2018-10-21T10:36:11.475Z,9.30
2018-10-21T10:37:11.518Z,9.70
2018-10-21T10:38:11.419Z,9.00
2018-10-21T10:39:11.421Z,9.40
2018-10-21T10:40:11.494Z,9.70
2018-10-21T10:41:11.415Z,9.30
2018-10-21T10:42:11.431Z,9.10
2018-10-21T10:43:11.498Z,9.30
2018-10-21T10:44:11.411Z,8.80
2018-10-21T10:45:11.410Z,8.40
2018-10-21T10:46:11.457Z,8.40
2018-10-21T10:47:11.611Z,8.80
2018-10-21T10:48:11.607Z,9.10
2018-10-21T10:49:11.660Z,9.10
2018-10-21T10:50:11.408Z,8.30
2018-10-21T10:51:11.409Z,9.00
2018-10-21T10:52:11.449Z,8.20
2018-10-21T10:53:11.605Z,8.30
2018-10-21T10:54:11.401Z,7.90
2018-10-21T10:55:11.476Z,7.70
2018-10-21T10:56:11.398Z,7.80
2018-10-21T10:57:11.407Z,7.90
2018-10-21T10:58:11.481Z,7.30
2018-10-21T10:59:11.595Z,7.10
2018-10-21T11:00:11.454Z,7.00
2018-10-21T11:01:11.463Z,6.20
2018-10-21T11:02:11.396Z,6.30
2018-10-21T11:03:11.398Z,7.30
2018-10-21T11:04:11.671Z,7.00
2018-10-21T11:05:11.402Z,7.10
2018-10-21T11:06:11.413Z,7.20
2018-10-21T11:07:11.477Z,6.80
2018-10-21T11:08:11.398Z,6.90
2018-10-21T11:09:11.392Z,6.80
2018-10-21T11:10:11.458Z,6.70
2018-10-21T11:11:11.397Z,6.10
2018-10-21T11:12:11.382Z,6.50
2018-10-21T11:13:11.549Z,6.40
2018-10-21T11:14:11.377Z,6.10
2018-10-21T11:15:11.374Z,6.30
2018-10-21T11:16:11.733Z,5.70
2018-10-21T11:17:11.590Z,6.80
2018-10-21T11:18:11.382Z,6.30
2018-10-21T11:19:11.494Z,5.90
2018-10-21T11:20:11.381Z,6.20
2018-10-21T11:21:11.404Z,5.40
2018-10-21T11:22:11.496Z,5.10
2018-10-21T11:23:11.584Z,6.20
2018-10-21T11:24:11.378Z,6.30
2018-10-21T11:25:11.448Z,5.80
2018-10-21T11:26:11.377Z,5.40
2018-10-21T11:27:11.600Z,5.50
2018-10-21T11:28:11.521Z,5.80
2018-10-21T11:29:11.381Z,5.20
2018-10-21T11:30:11.361Z,5.20
2018-10-21T11:31:11.471Z,5.40
2018-10-21T11:32:11.561Z,5.80
2018-10-21T11:33:11.370Z,5.60
2018-10-21T11:34:11.510Z,6.20
2018-10-21T11:35:11.361Z,5.40
2018-10-21T11:36:11.367Z,5.40
2018-10-21T11:37:11.439Z,4.60
2018-10-21T11:38:11.375Z,4.80
2018-10-21T11:39:11.362Z,4.10
2018-10-21T11:40:11.675Z,4.00
2018-10-21T11:41:11.566Z,4.60
2018-10-21T11:42:11.385Z,4.70
2018-10-21T11:43:11.417Z,4.80
2018-10-21T11:44:11.350Z,4.50
2018-10-21T11:45:11.362Z,4.60
2018-10-21T11:46:11.693Z,4.80
2018-10-21T11:47:11.547Z,4.90
2018-10-21T11:48:11.366Z,4.60
2018-10-21T11:49:11.463Z,4.70
2018-10-21T11:50:11.356Z,4.40
2018-10-21T11:51:11.343Z,4.50
2018-10-21T11:52:11.447Z,4.60
2018-10-21T11:53:11.340Z,4.60
2018-10-21T11:54:11.343Z,4.40
2018-10-21T11:55:11.439Z,4.10
2018-10-21T11:56:11.563Z,4.40
2018-10-21T11:57:11.338Z,4.00
2018-10-21T11:58:11.515Z,3.80
2018-10-21T11:59:11.548Z,4.40
2018-10-21T12:00:11.341Z,4.60
2018-10-21T12:01:11.448Z,4.50
2018-10-21T12:02:11.350Z,4.30
2018-10-21T12:03:11.550Z,4.30
2018-10-21T12:04:11.436Z,4.90
2018-10-21T12:05:11.343Z,4.90
2018-10-21T12:06:11.337Z,5.20
2018-10-21T12:07:11.406Z,4.10
2018-10-21T12:08:11.343Z,3.90
2018-10-21T12:09:11.327Z,4.10
2018-10-21T12:10:11.442Z,4.30
2018-10-21T12:11:11.344Z,4.20
2018-10-21T12:12:11.347Z,4.00
2018-10-21T12:13:11.480Z,4.30
2018-10-21T12:14:11.537Z,4.30
2018-10-21T12:15:11.325Z,4.10
2018-10-21T12:16:11.348Z,4.20
2018-10-21T12:17:11.527Z,4.00
2018-10-21T12:18:11.336Z,4.00
2018-10-21T12:19:11.661Z,3.70
2018-10-21T12:20:11.338Z,3.70
2018-10-21T12:21:11.330Z,3.90
2018-10-21T12:22:11.421Z,3.70
2018-10-21T12:23:11.676Z,4.10
2018-10-21T12:24:11.329Z,3.80
2018-10-21T12:25:11.389Z,4.00
2018-10-21T12:26:11.521Z,3.50
2018-10-21T12:27:11.529Z,3.90
2018-10-21T12:28:11.415Z,4.10
2018-10-21T12:29:11.372Z,4.20
2018-10-21T12:30:11.537Z,3.80
2018-10-21T12:31:11.379Z,3.60
2018-10-21T12:32:11.325Z,3.60
2018-10-21T12:33:11.311Z,3.80
2018-10-21T12:34:11.407Z,3.60
2018-10-21T12:35:11.453Z,3.30
2018-10-21T12:36:11.342Z,3.50
2018-10-21T12:37:11.365Z,3.30
2018-10-21T12:38:11.325Z,3.40
2018-10-21T12:39:11.327Z,3.30
2018-10-21T12:40:11.385Z,3.80
2018-10-21T12:41:11.405Z,3.30
2018-10-21T12:42:11.306Z,3.40
2018-10-21T12:43:11.359Z,3.10
2018-10-21T12:44:11.515Z,2.90
2018-10-21T12:45:11.321Z,3.30
2018-10-21T12:46:11.358Z,3.10
2018-10-21T12:47:11.590Z,2.90
2018-10-21T12:48:11.304Z,2.70
2018-10-21T12:49:11.317Z,2.70
2018-10-21T12:50:11.534Z,3.00
2018-10-21T12:51:11.302Z,2.80
2018-10-21T12:52:11.609Z,2.50
2018-10-21T12:53:11.346Z,2.70
2018-10-21T12:54:11.634Z,2.40
2018-10-21T12:55:11.360Z,2.40
2018-10-21T12:56:11.518Z,2.60
2018-10-21T12:57:11.504Z,2.40
2018-10-21T12:58:11.630Z,2.60
2018-10-21T12:59:11.512Z,2.40